sensor_id;sensor_type;location;lat;lon;timestamp;P1;P2;P0
78678;PMS5003;67994;59.334;13.528;2024-02-21T00:00:00;8.2;7.0;
78678;PMS5003;67994;59.334;13.528;2024-02-21T00:01:00;8.2;7.0;
78678;PMS5003;67994;59.334;13.528;2024-02-21T00:02:00;8.2;7.0;
78678;PMS5003;67994;59.334;13.528;2024-02-21T00:03:00;8.2;7.0;
78678;PMS5003;67994;59.334;13.528;2024-02-21T00:04:00;12.6;7.6;
78678;PMS5003;67994;59.334;13.528;2024-02-21T00:05:00;12.6;7.6;
78678;PMS5003;67994;59.334;13.528;2024-02-21T00:06:00;12.6;7.6;
78678;PMS5003;67994;59.334;13.528;2024-02-21T00:07:00;12.6;7.6;
78678;PMS5003;67994;59.334;13.528;2024-02-21T00:08:01;12.6;7.6;
78678;PMS5003;67994;59.334;13.528;2024-02-21T00:09:00;10.2;8.7;
78678;PMS5003;67994;59.334;13.528;2024-02-21T00:10:00;10.2;8.7;
78678;PMS5003;67994;59.334;13.528;2024-02-21T00:11:01;10.2;8.7;
78678;PMS5003;67994;59.334;13.528;2024-02-21T00:12:01;10.2;8.7;
78678;PMS5003;67994;59.334;13.528;2024-02-21T00:13:00;10.2;8.7;
78678;PMS5003;67994;59.334;13.528;2024-02-21T00:14:00;9.7;5.5;
78678;PMS5003;67994;59.334;13.528;2024-02-21T00:15:00;9.7;5.5;
78678;PMS5003;67994;59.334;13.528;2024-02-21T00:16:01;9.7;5.5;
78678;PMS5003;67994;59.334;13.528;2024-02-21T00:17:00;9.7;5.5;
78678;PMS5003;67994;59.334;13.528;2024-02-21T00:18:01;9.7;5.5;
78678;PMS5003;67994;59.334;13.528;2024-02-21T00:19:00;11.8;7.0;
78678;PMS5003;67994;59.334;13.528;2024-02-21T00:20:00;11.8;7.0;
78678;PMS5003;67994;59.334;13.528;2024-02-21T00:21:00;11.8;7.0;
78678;PMS5003;67994;59.334;13.528;2024-02-21T00:22:00;11.8;7.0;
78678;PMS5003;67994;59.334;13.528;2024-02-21T00:23:00;11.8;7.0;
78678;PMS5003;67994;59.334;13.528;2024-02-21T00:24:01;11.2;10.0;
78678;PMS5003;67994;59.334;13.528;2024-02-21T00:25:00;11.2;10.0;
78678;PMS5003;67994;59.334;13.528;2024-02-21T00:26:01;11.2;10.0;
78678;PMS5003;67994;59.334;13.528;2024-02-21T00:27:00;11.2;10.0;
78678;PMS5003;67994;59.334;13.528;2024-02-21T00:28:00;11.2;10.0;
78678;PMS5003;67994;59.334;13.528;2024-02-21T00:29:01;6.3;6.3;
78678;PMS5003;67994;59.334;13.528;2024-02-21T00:30:00;6.3;6.3;
78678;PMS5003;67994;59.334;13.528;2024-02-21T00:31:00;6.3;6.3;
78678;PMS5003;67994;59.334;13.528;2024-02-21T00:32:00;6.3;6.3;
78678;PMS5003;67994;59.334;13.528;2024-02-21T00:33:01;6.3;6.3;
78678;PMS5003;67994;59.334;13.528;2024-02-21T00:34:00;10.6;6.7;
78678;PMS5003;67994;59.334;13.528;2024-02-21T00:35:00;10.6;6.7;
78678;PMS5003;67994;59.334;13.528;2024-02-21T00:36:01;10.6;6.7;
78678;PMS5003;67994;59.334;13.528;2024-02-21T00:37:00;10.6;6.7;
78678;PMS5003;67994;59.334;13.528;2024-02-21T00:38:00;10.6;6.7;
78678;PMS5003;67994;59.334;13.528;2024-02-21T00:39:00;10.6;7.0;
78678;PMS5003;67994;59.334;13.528;2024-02-21T00:40:00;10.6;7.0;
78678;PMS5003;67994;59.334;13.528;2024-02-21T00:41:00;10.6;7.0;
78678;PMS5003;67994;59.334;13.528;2024-02-21T00:42:00;10.6;7.0;
78678;PMS5003;67994;59.334;13.528;2024-02-21T00:43:01;10.6;7.0;
78678;PMS5003;67994;59.334;13.528;2024-02-21T00:44:00;11.2;9.6;
78678;PMS5003;67994;59.334;13.528;2024-02-21T00:45:00;11.2;9.6;
78678;PMS5003;67994;59.334;13.528;2024-02-21T00:46:00;11.2;9.6;
78678;PMS5003;67994;59.334;13.528;2024-02-21T00:47:00;11.2;9.6;
78678;PMS5003;67994;59.334;13.528;2024-02-21T00:48:00;11.2;9.6;
78678;PMS5003;67994;59.334;13.528;2024-02-21T00:49:01;11.4;8.7;
78678;PMS5003;67994;59.334;13.528;2024-02-21T00:50:00;11.4;8.7;
78678;PMS5003;67994;59.334;13.528;2024-02-21T00:51:00;11.4;8.7;
78678;PMS5003;67994;59.334;13.528;2024-02-21T00:52:00;11.4;8.7;
78678;PMS5003;67994;59.334;13.528;2024-02-21T00:53:00;11.4;8.7;
78678;PMS5003;67994;59.334;13.528;2024-02-21T00:54:00;10.5;5.7;
78678;PMS5003;67994;59.334;13.528;2024-02-21T00:55:01;10.5;5.7;
78678;PMS5003;67994;59.334;13.528;2024-02-21T00:56:00;10.5;5.7;
78678;PMS5003;67994;59.334;13.528;2024-02-21T00:57:00;10.5;5.7;
78678;PMS5003;67994;59.334;13.528;2024-02-21T00:58:00;10.5;5.7;
78678;PMS5003;67994;59.334;13.528;2024-02-21T00:59:00;13.6;7.6;
78678;PMS5003;67994;59.334;13.528;2024-02-21T01:00:01;13.6;7.6;
78678;PMS5003;67994;59.334;13.528;2024-02-21T01:01:00;13.6;7.6;
78678;PMS5003;67994;59.334;13.528;2024-02-21T01:02:01;13.6;7.6;
78678;PMS5003;67994;59.334;13.528;2024-02-21T01:03:00;13.6;7.6;
78678;PMS5003;67994;59.334;13.528;2024-02-21T01:04:01;9.3;8.2;
78678;PMS5003;67994;59.334;13.528;2024-02-21T01:05:01;9.3;8.2;
78678;PMS5003;67994;59.334;13.528;2024-02-21T01:06:00;9.3;8.2;
78678;PMS5003;67994;59.334;13.528;2024-02-21T01:07:00;9.3;8.2;
78678;PMS5003;67994;59.334;13.528;2024-02-21T01:08:00;9.3;8.2;
78678;PMS5003;67994;59.334;13.528;2024-02-21T01:09:00;12.1;9.7;
78678;PMS5003;67994;59.334;13.528;2024-02-21T01:10:00;12.1;9.7;
78678;PMS5003;67994;59.334;13.528;2024-02-21T01:11:00;12.1;9.7;
78678;PMS5003;67994;59.334;13.528;2024-02-21T01:12:00;12.1;9.7;
78678;PMS5003;67994;59.334;13.528;2024-02-21T01:13:00;12.1;9.7;
78678;PMS5003;67994;59.334;13.528;2024-02-21T01:14:00;9.6;7.5;
78678;PMS5003;67994;59.334;13.528;2024-02-21T01:15:00;9.6;7.5;
78678;PMS5003;67994;59.334;13.528;2024-02-21T01:16:00;9.6;7.5;
78678;PMS5003;67994;59.334;13.528;2024-02-21T01:17:00;9.6;7.5;
78678;PMS5003;67994;59.334;13.528;2024-02-21T01:18:00;9.6;7.5;
78678;PMS5003;67994;59.334;13.528;2024-02-21T01:19:00;12.0;8.2;
78678;PMS5003;67994;59.334;13.528;2024-02-21T01:20:00;12.0;8.2;
78678;PMS5003;67994;59.334;13.528;2024-02-21T01:21:00;12.0;8.2;
78678;PMS5003;67994;59.334;13.528;2024-02-21T01:22:00;12.0;8.2;
78678;PMS5003;67994;59.334;13.528;2024-02-21T01:23:00;12.0;8.2;
78678;PMS5003;67994;59.334;13.528;2024-02-21T01:24:00;7.0;5.8;
78678;PMS5003;67994;59.334;13.528;2024-02-21T01:25:00;7.0;5.8;
78678;PMS5003;67994;59.334;13.528;2024-02-21T01:26:00;7.0;5.8;
78678;PMS5003;67994;59.334;13.528;2024-02-21T01:27:00;7.0;5.8;
78678;PMS5003;67994;59.334;13.528;2024-02-21T01:28:00;7.0;5.8;
78678;PMS5003;67994;59.334;13.528;2024-02-21T01:29:00;13.5;7.6;
78678;PMS5003;67994;59.334;13.528;2024-02-21T01:30:00;13.5;7.6;
78678;PMS5003;67994;59.334;13.528;2024-02-21T01:31:00;13.5;7.6;
78678;PMS5003;67994;59.334;13.528;2024-02-21T01:32:00;13.5;7.6;
78678;PMS5003;67994;59.334;13.528;2024-02-21T01:33:00;13.5;7.6;
78678;PMS5003;67994;59.334;13.528;2024-02-21T01:34:12;13.3;7.2;
78678;PMS5003;67994;59.334;13.528;2024-02-21T01:35:00;13.3;7.2;
78678;PMS5003;67994;59.334;13.528;2024-02-21T01:36:00;13.3;7.2;
78678;PMS5003;67994;59.334;13.528;2024-02-21T01:37:00;13.3;7.2;
78678;PMS5003;67994;59.334;13.528;2024-02-21T01:38:01;13.3;7.2;
78678;PMS5003;67994;59.334;13.528;2024-02-21T01:39:00;6.6;6.6;
78678;PMS5003;67994;59.334;13.528;2024-02-21T01:40:00;6.6;6.6;
78678;PMS5003;67994;59.334;13.528;2024-02-21T01:41:00;6.6;6.6;
78678;PMS5003;67994;59.334;13.528;2024-02-21T01:42:00;6.6;6.6;
78678;PMS5003;67994;59.334;13.528;2024-02-21T01:43:00;6.6;6.6;
78678;PMS5003;67994;59.334;13.528;2024-02-21T01:44:00;9.0;6.4;
78678;PMS5003;67994;59.334;13.528;2024-02-21T01:45:01;9.0;6.4;
78678;PMS5003;67994;59.334;13.528;2024-02-21T01:46:00;9.0;6.4;
78678;PMS5003;67994;59.334;13.528;2024-02-21T01:47:00;9.0;6.4;
78678;PMS5003;67994;59.334;13.528;2024-02-21T01:48:00;9.0;6.4;
78678;PMS5003;67994;59.334;13.528;2024-02-21T01:49:00;9.3;6.0;
78678;PMS5003;67994;59.334;13.528;2024-02-21T01:50:01;9.3;6.0;
78678;PMS5003;67994;59.334;13.528;2024-02-21T01:51:00;9.3;6.0;
78678;PMS5003;67994;59.334;13.528;2024-02-21T01:52:00;9.3;6.0;
78678;PMS5003;67994;59.334;13.528;2024-02-21T01:53:00;9.3;6.0;
78678;PMS5003;67994;59.334;13.528;2024-02-21T01:54:00;6.0;6.0;
78678;PMS5003;67994;59.334;13.528;2024-02-21T01:55:00;6.0;6.0;
78678;PMS5003;67994;59.334;13.528;2024-02-21T01:56:00;6.0;6.0;
78678;PMS5003;67994;59.334;13.528;2024-02-21T01:57:00;6.0;6.0;
78678;PMS5003;67994;59.334;13.528;2024-02-21T01:58:00;6.0;6.0;
78678;PMS5003;67994;59.334;13.528;2024-02-21T01:59:00;10.6;7.8;
78678;PMS5003;67994;59.334;13.528;2024-02-21T02:00:01;10.6;7.8;
78678;PMS5003;67994;59.334;13.528;2024-02-21T02:01:00;10.6;7.8;
78678;PMS5003;67994;59.334;13.528;2024-02-21T02:02:00;10.6;7.8;
78678;PMS5003;67994;59.334;13.528;2024-02-21T02:03:00;10.6;7.8;
78678;PMS5003;67994;59.334;13.528;2024-02-21T02:04:01;11.4;9.4;
78678;PMS5003;67994;59.334;13.528;2024-02-21T02:05:01;11.4;9.4;
78678;PMS5003;67994;59.334;13.528;2024-02-21T02:06:00;11.4;9.4;
78678;PMS5003;67994;59.334;13.528;2024-02-21T02:07:01;11.4;9.4;
78678;PMS5003;67994;59.334;13.528;2024-02-21T02:08:00;11.4;9.4;
78678;PMS5003;67994;59.334;13.528;2024-02-21T02:09:01;10.0;7.6;
78678;PMS5003;67994;59.334;13.528;2024-02-21T02:10:00;10.0;7.6;
78678;PMS5003;67994;59.334;13.528;2024-02-21T02:11:00;10.0;7.6;
78678;PMS5003;67994;59.334;13.528;2024-02-21T02:12:01;10.0;7.6;
78678;PMS5003;67994;59.334;13.528;2024-02-21T02:13:00;10.0;7.6;
78678;PMS5003;67994;59.334;13.528;2024-02-21T02:14:01;13.3;9.0;
78678;PMS5003;67994;59.334;13.528;2024-02-21T02:15:01;13.3;9.0;
78678;PMS5003;67994;59.334;13.528;2024-02-21T02:16:00;13.3;9.0;
78678;PMS5003;67994;59.334;13.528;2024-02-21T02:17:00;13.3;9.0;
78678;PMS5003;67994;59.334;13.528;2024-02-21T02:18:00;13.3;9.0;
78678;PMS5003;67994;59.334;13.528;2024-02-21T02:19:00;14.4;9.1;
78678;PMS5003;67994;59.334;13.528;2024-02-21T02:20:01;14.4;9.1;
78678;PMS5003;67994;59.334;13.528;2024-02-21T02:21:00;14.4;9.1;
78678;PMS5003;67994;59.334;13.528;2024-02-21T02:22:03;14.4;9.1;
78678;PMS5003;67994;59.334;13.528;2024-02-21T02:23:01;14.4;9.1;
78678;PMS5003;67994;59.334;13.528;2024-02-21T02:24:00;6.9;6.0;
78678;PMS5003;67994;59.334;13.528;2024-02-21T02:25:00;6.9;6.0;
78678;PMS5003;67994;59.334;13.528;2024-02-21T02:26:00;6.9;6.0;
78678;PMS5003;67994;59.334;13.528;2024-02-21T02:27:00;6.9;6.0;
78678;PMS5003;67994;59.334;13.528;2024-02-21T02:28:01;6.9;6.0;
78678;PMS5003;67994;59.334;13.528;2024-02-21T02:29:01;8.4;8.4;
78678;PMS5003;67994;59.334;13.528;2024-02-21T02:30:00;8.4;8.4;
78678;PMS5003;67994;59.334;13.528;2024-02-21T02:31:01;8.4;8.4;
78678;PMS5003;67994;59.334;13.528;2024-02-21T02:32:00;8.4;8.4;
78678;PMS5003;67994;59.334;13.528;2024-02-21T02:33:01;8.4;8.4;
78678;PMS5003;67994;59.334;13.528;2024-02-21T02:34:00;9.3;9.3;
78678;PMS5003;67994;59.334;13.528;2024-02-21T02:35:00;9.3;9.3;
78678;PMS5003;67994;59.334;13.528;2024-02-21T02:36:00;9.3;9.3;
78678;PMS5003;67994;59.334;13.528;2024-02-21T02:37:00;9.3;9.3;
78678;PMS5003;67994;59.334;13.528;2024-02-21T02:38:01;9.3;9.3;
78678;PMS5003;67994;59.334;13.528;2024-02-21T02:39:00;12.9;10.0;
78678;PMS5003;67994;59.334;13.528;2024-02-21T02:40:01;12.9;10.0;
78678;PMS5003;67994;59.334;13.528;2024-02-21T02:41:01;12.9;10.0;
78678;PMS5003;67994;59.334;13.528;2024-02-21T02:42:01;12.9;10.0;
78678;PMS5003;67994;59.334;13.528;2024-02-21T02:43:01;12.9;10.0;
78678;PMS5003;67994;59.334;13.528;2024-02-21T02:44:00;14.1;7.9;
78678;PMS5003;67994;59.334;13.528;2024-02-21T02:45:01;14.1;7.9;
78678;PMS5003;67994;59.334;13.528;2024-02-21T02:46:01;14.1;7.9;
78678;PMS5003;67994;59.334;13.528;2024-02-21T02:47:01;14.1;7.9;
78678;PMS5003;67994;59.334;13.528;2024-02-21T02:48:01;14.1;7.9;
78678;PMS5003;67994;59.334;13.528;2024-02-21T02:49:00;13.5;8.8;
78678;PMS5003;67994;59.334;13.528;2024-02-21T02:50:01;13.5;8.8;
78678;PMS5003;67994;59.334;13.528;2024-02-21T02:51:00;13.5;8.8;
78678;PMS5003;67994;59.334;13.528;2024-02-21T02:52:00;13.5;8.8;
78678;PMS5003;67994;59.334;13.528;2024-02-21T02:53:00;13.5;8.8;
78678;PMS5003;67994;59.334;13.528;2024-02-21T02:54:01;9.9;6.0;
78678;PMS5003;67994;59.334;13.528;2024-02-21T02:55:00;9.9;6.0;
78678;PMS5003;67994;59.334;13.528;2024-02-21T02:56:01;9.9;6.0;
78678;PMS5003;67994;59.334;13.528;2024-02-21T02:57:00;9.9;6.0;
78678;PMS5003;67994;59.334;13.528;2024-02-21T02:58:00;9.9;6.0;
78678;PMS5003;67994;59.334;13.528;2024-02-21T02:59:00;14.4;12.0;
78678;PMS5003;67994;59.334;13.528;2024-02-21T03:00:00;14.4;12.0;
78678;PMS5003;67994;59.334;13.528;2024-02-21T03:01:00;14.4;12.0;
78678;PMS5003;67994;59.334;13.528;2024-02-21T03:02:00;14.4;12.0;
78678;PMS5003;67994;59.334;13.528;2024-02-21T03:03:00;14.4;12.0;
78678;PMS5003;67994;59.334;13.528;2024-02-21T03:04:00;13.0;8.4;
78678;PMS5003;67994;59.334;13.528;2024-02-21T03:05:00;13.0;8.4;
78678;PMS5003;67994;59.334;13.528;2024-02-21T03:06:00;13.0;8.4;
78678;PMS5003;67994;59.334;13.528;2024-02-21T03:07:00;13.0;8.4;
78678;PMS5003;67994;59.334;13.528;2024-02-21T03:08:00;13.0;8.4;
78678;PMS5003;67994;59.334;13.528;2024-02-21T03:09:00;15.9;11.4;
78678;PMS5003;67994;59.334;13.528;2024-02-21T03:10:00;15.9;11.4;
78678;PMS5003;67994;59.334;13.528;2024-02-21T03:11:00;15.9;11.4;
78678;PMS5003;67994;59.334;13.528;2024-02-21T03:12:00;15.9;11.4;
78678;PMS5003;67994;59.334;13.528;2024-02-21T03:13:00;15.9;11.4;
78678;PMS5003;67994;59.334;13.528;2024-02-21T03:14:00;11.5;7.5;
78678;PMS5003;67994;59.334;13.528;2024-02-21T03:15:00;11.5;7.5;
78678;PMS5003;67994;59.334;13.528;2024-02-21T03:16:00;11.5;7.5;
78678;PMS5003;67994;59.334;13.528;2024-02-21T03:17:00;11.5;7.5;
78678;PMS5003;67994;59.334;13.528;2024-02-21T03:18:00;11.5;7.5;
78678;PMS5003;67994;59.334;13.528;2024-02-21T03:19:00;10.0;8.4;
78678;PMS5003;67994;59.334;13.528;2024-02-21T03:20:01;10.0;8.4;
78678;PMS5003;67994;59.334;13.528;2024-02-21T03:21:00;10.0;8.4;
78678;PMS5003;67994;59.334;13.528;2024-02-21T03:22:00;10.0;8.4;
78678;PMS5003;67994;59.334;13.528;2024-02-21T03:23:00;10.0;8.4;
78678;PMS5003;67994;59.334;13.528;2024-02-21T03:24:00;13.9;9.7;
78678;PMS5003;67994;59.334;13.528;2024-02-21T03:25:01;13.9;9.7;
78678;PMS5003;67994;59.334;13.528;2024-02-21T03:26:00;13.9;9.7;
78678;PMS5003;67994;59.334;13.528;2024-02-21T03:27:00;13.9;9.7;
78678;PMS5003;67994;59.334;13.528;2024-02-21T03:28:00;13.9;9.7;
78678;PMS5003;67994;59.334;13.528;2024-02-21T03:29:01;6.9;6.6;
78678;PMS5003;67994;59.334;13.528;2024-02-21T03:30:00;6.9;6.6;
78678;PMS5003;67994;59.334;13.528;2024-02-21T03:31:00;6.9;6.6;
78678;PMS5003;67994;59.334;13.528;2024-02-21T03:32:00;6.9;6.6;
78678;PMS5003;67994;59.334;13.528;2024-02-21T03:33:01;6.9;6.6;
78678;PMS5003;67994;59.334;13.528;2024-02-21T03:34:00;4.8;4.8;
78678;PMS5003;67994;59.334;13.528;2024-02-21T03:35:01;4.8;4.8;
78678;PMS5003;67994;59.334;13.528;2024-02-21T03:36:00;4.8;4.8;
78678;PMS5003;67994;59.334;13.528;2024-02-21T03:37:00;4.8;4.8;
78678;PMS5003;67994;59.334;13.528;2024-02-21T03:38:00;4.8;4.8;
78678;PMS5003;67994;59.334;13.528;2024-02-21T03:39:00;6.1;6.0;
78678;PMS5003;67994;59.334;13.528;2024-02-21T03:40:00;6.1;6.0;
78678;PMS5003;67994;59.334;13.528;2024-02-21T03:41:00;6.1;6.0;
78678;PMS5003;67994;59.334;13.528;2024-02-21T03:42:01;6.1;6.0;
78678;PMS5003;67994;59.334;13.528;2024-02-21T03:43:02;6.1;6.0;
78678;PMS5003;67994;59.334;13.528;2024-02-21T03:44:01;4.0;4.0;
78678;PMS5003;67994;59.334;13.528;2024-02-21T03:45:00;4.0;4.0;
78678;PMS5003;67994;59.334;13.528;2024-02-21T03:46:00;4.0;4.0;
78678;PMS5003;67994;59.334;13.528;2024-02-21T03:47:00;4.0;4.0;
78678;PMS5003;67994;59.334;13.528;2024-02-21T03:48:00;4.0;4.0;
78678;PMS5003;67994;59.334;13.528;2024-02-21T03:49:00;6.3;4.8;
78678;PMS5003;67994;59.334;13.528;2024-02-21T03:50:00;6.3;4.8;
78678;PMS5003;67994;59.334;13.528;2024-02-21T03:51:00;6.3;4.8;
78678;PMS5003;67994;59.334;13.528;2024-02-21T03:52:01;6.3;4.8;
78678;PMS5003;67994;59.334;13.528;2024-02-21T03:53:00;6.3;4.8;
78678;PMS5003;67994;59.334;13.528;2024-02-21T03:54:01;13.3;7.6;
78678;PMS5003;67994;59.334;13.528;2024-02-21T03:55:01;13.3;7.6;
78678;PMS5003;67994;59.334;13.528;2024-02-21T03:56:01;13.3;7.6;
78678;PMS5003;67994;59.334;13.528;2024-02-21T03:57:00;13.3;7.6;
78678;PMS5003;67994;59.334;13.528;2024-02-21T03:58:00;13.3;7.6;
78678;PMS5003;67994;59.334;13.528;2024-02-21T03:59:00;6.7;6.7;
78678;PMS5003;67994;59.334;13.528;2024-02-21T04:00:00;6.7;6.7;
78678;PMS5003;67994;59.334;13.528;2024-02-21T04:01:01;6.7;6.7;
78678;PMS5003;67994;59.334;13.528;2024-02-21T04:02:00;6.7;6.7;
78678;PMS5003;67994;59.334;13.528;2024-02-21T04:03:01;6.7;6.7;
78678;PMS5003;67994;59.334;13.528;2024-02-21T04:04:00;5.4;4.6;
78678;PMS5003;67994;59.334;13.528;2024-02-21T04:05:00;5.4;4.6;
78678;PMS5003;67994;59.334;13.528;2024-02-21T04:06:00;5.4;4.6;
78678;PMS5003;67994;59.334;13.528;2024-02-21T04:07:00;5.4;4.6;
78678;PMS5003;67994;59.334;13.528;2024-02-21T04:08:03;5.4;4.6;
78678;PMS5003;67994;59.334;13.528;2024-02-21T04:09:00;9.1;6.3;
78678;PMS5003;67994;59.334;13.528;2024-02-21T04:10:00;9.1;6.3;
78678;PMS5003;67994;59.334;13.528;2024-02-21T04:11:00;9.1;6.3;
78678;PMS5003;67994;59.334;13.528;2024-02-21T04:12:00;9.1;6.3;
78678;PMS5003;67994;59.334;13.528;2024-02-21T04:13:00;9.1;6.3;
78678;PMS5003;67994;59.334;13.528;2024-02-21T04:14:00;10.3;10.3;
78678;PMS5003;67994;59.334;13.528;2024-02-21T04:15:00;10.3;10.3;
78678;PMS5003;67994;59.334;13.528;2024-02-21T04:16:00;10.3;10.3;
78678;PMS5003;67994;59.334;13.528;2024-02-21T04:17:00;10.3;10.3;
78678;PMS5003;67994;59.334;13.528;2024-02-21T04:18:01;10.3;10.3;
78678;PMS5003;67994;59.334;13.528;2024-02-21T04:19:01;13.9;10.0;
78678;PMS5003;67994;59.334;13.528;2024-02-21T04:20:02;13.9;10.0;
78678;PMS5003;67994;59.334;13.528;2024-02-21T04:21:00;13.9;10.0;
78678;PMS5003;67994;59.334;13.528;2024-02-21T04:22:01;13.9;10.0;
78678;PMS5003;67994;59.334;13.528;2024-02-21T04:23:01;13.9;10.0;
78678;PMS5003;67994;59.334;13.528;2024-02-21T04:24:00;9.1;8.2;
78678;PMS5003;67994;59.334;13.528;2024-02-21T04:25:00;9.1;8.2;
78678;PMS5003;67994;59.334;13.528;2024-02-21T04:26:00;9.1;8.2;
78678;PMS5003;67994;59.334;13.528;2024-02-21T04:27:00;9.1;8.2;
78678;PMS5003;67994;59.334;13.528;2024-02-21T04:28:00;9.1;8.2;
78678;PMS5003;67994;59.334;13.528;2024-02-21T04:29:00;12.9;8.2;
78678;PMS5003;67994;59.334;13.528;2024-02-21T04:30:00;12.9;8.2;
78678;PMS5003;67994;59.334;13.528;2024-02-21T04:31:00;12.9;8.2;
78678;PMS5003;67994;59.334;13.528;2024-02-21T04:32:01;12.9;8.2;
78678;PMS5003;67994;59.334;13.528;2024-02-21T04:33:00;12.9;8.2;
78678;PMS5003;67994;59.334;13.528;2024-02-21T04:34:00;10.3;6.0;
78678;PMS5003;67994;59.334;13.528;2024-02-21T04:35:00;10.3;6.0;
78678;PMS5003;67994;59.334;13.528;2024-02-21T04:36:00;10.3;6.0;
78678;PMS5003;67994;59.334;13.528;2024-02-21T04:37:00;10.3;6.0;
78678;PMS5003;67994;59.334;13.528;2024-02-21T04:38:00;10.3;6.0;
78678;PMS5003;67994;59.334;13.528;2024-02-21T04:39:00;6.6;4.0;
78678;PMS5003;67994;59.334;13.528;2024-02-21T04:40:00;6.6;4.0;
78678;PMS5003;67994;59.334;13.528;2024-02-21T04:41:00;6.6;4.0;
78678;PMS5003;67994;59.334;13.528;2024-02-21T04:42:00;6.6;4.0;
78678;PMS5003;67994;59.334;13.528;2024-02-21T04:43:01;6.6;4.0;
78678;PMS5003;67994;59.334;13.528;2024-02-21T04:44:00;9.4;7.6;
78678;PMS5003;67994;59.334;13.528;2024-02-21T04:45:00;9.4;7.6;
78678;PMS5003;67994;59.334;13.528;2024-02-21T04:46:00;9.4;7.6;
78678;PMS5003;67994;59.334;13.528;2024-02-21T04:47:00;9.4;7.6;
78678;PMS5003;67994;59.334;13.528;2024-02-21T04:48:00;9.4;7.6;
78678;PMS5003;67994;59.334;13.528;2024-02-21T04:49:00;9.4;6.1;
78678;PMS5003;67994;59.334;13.528;2024-02-21T04:50:00;9.4;6.1;
78678;PMS5003;67994;59.334;13.528;2024-02-21T04:51:00;9.4;6.1;
78678;PMS5003;67994;59.334;13.528;2024-02-21T04:52:01;9.4;6.1;
78678;PMS5003;67994;59.334;13.528;2024-02-21T04:53:00;9.4;6.1;
78678;PMS5003;67994;59.334;13.528;2024-02-21T04:54:00;8.8;6.6;
78678;PMS5003;67994;59.334;13.528;2024-02-21T04:55:00;8.8;6.6;
78678;PMS5003;67994;59.334;13.528;2024-02-21T04:56:00;8.8;6.6;
78678;PMS5003;67994;59.334;13.528;2024-02-21T04:57:00;8.8;6.6;
78678;PMS5003;67994;59.334;13.528;2024-02-21T04:58:00;8.8;6.6;
78678;PMS5003;67994;59.334;13.528;2024-02-21T04:59:00;6.0;6.0;
78678;PMS5003;67994;59.334;13.528;2024-02-21T05:00:00;6.0;6.0;
78678;PMS5003;67994;59.334;13.528;2024-02-21T05:01:00;6.0;6.0;
78678;PMS5003;67994;59.334;13.528;2024-02-21T05:02:00;6.0;6.0;
78678;PMS5003;67994;59.334;13.528;2024-02-21T05:03:01;6.0;6.0;
78678;PMS5003;67994;59.334;13.528;2024-02-21T05:04:00;5.2;5.2;
78678;PMS5003;67994;59.334;13.528;2024-02-21T05:05:00;5.2;5.2;
78678;PMS5003;67994;59.334;13.528;2024-02-21T05:06:00;5.2;5.2;
78678;PMS5003;67994;59.334;13.528;2024-02-21T05:07:01;5.2;5.2;
78678;PMS5003;67994;59.334;13.528;2024-02-21T05:08:00;5.2;5.2;
78678;PMS5003;67994;59.334;13.528;2024-02-21T05:09:00;9.6;6.6;
78678;PMS5003;67994;59.334;13.528;2024-02-21T05:10:00;9.6;6.6;
78678;PMS5003;67994;59.334;13.528;2024-02-21T05:11:00;9.6;6.6;
78678;PMS5003;67994;59.334;13.528;2024-02-21T05:12:00;9.6;6.6;
78678;PMS5003;67994;59.334;13.528;2024-02-21T05:13:00;9.6;6.6;
78678;PMS5003;67994;59.334;13.528;2024-02-21T05:14:00;3.4;3.4;
78678;PMS5003;67994;59.334;13.528;2024-02-21T05:15:01;3.4;3.4;
78678;PMS5003;67994;59.334;13.528;2024-02-21T05:16:00;3.4;3.4;
78678;PMS5003;67994;59.334;13.528;2024-02-21T05:17:00;3.4;3.4;
78678;PMS5003;67994;59.334;13.528;2024-02-21T05:18:00;3.4;3.4;
78678;PMS5003;67994;59.334;13.528;2024-02-21T05:19:00;6.9;6.0;
78678;PMS5003;67994;59.334;13.528;2024-02-21T05:20:00;6.9;6.0;
78678;PMS5003;67994;59.334;13.528;2024-02-21T05:21:01;6.9;6.0;
78678;PMS5003;67994;59.334;13.528;2024-02-21T05:22:01;6.9;6.0;
78678;PMS5003;67994;59.334;13.528;2024-02-21T05:23:03;6.9;6.0;
78678;PMS5003;67994;59.334;13.528;2024-02-21T05:24:00;4.6;4.6;
78678;PMS5003;67994;59.334;13.528;2024-02-21T05:25:00;4.6;4.6;
78678;PMS5003;67994;59.334;13.528;2024-02-21T05:26:00;4.6;4.6;
78678;PMS5003;67994;59.334;13.528;2024-02-21T05:27:00;4.6;4.6;
78678;PMS5003;67994;59.334;13.528;2024-02-21T05:28:00;4.6;4.6;
78678;PMS5003;67994;59.334;13.528;2024-02-21T05:29:00;0.4;0.4;
78678;PMS5003;67994;59.334;13.528;2024-02-21T05:30:00;0.4;0.4;
78678;PMS5003;67994;59.334;13.528;2024-02-21T05:31:00;0.4;0.4;
78678;PMS5003;67994;59.334;13.528;2024-02-21T05:32:00;0.4;0.4;
78678;PMS5003;67994;59.334;13.528;2024-02-21T05:33:03;0.4;0.4;
78678;PMS5003;67994;59.334;13.528;2024-02-21T05:34:01;3.0;3.0;
78678;PMS5003;67994;59.334;13.528;2024-02-21T05:35:00;3.0;3.0;
78678;PMS5003;67994;59.334;13.528;2024-02-21T05:36:00;3.0;3.0;
78678;PMS5003;67994;59.334;13.528;2024-02-21T05:37:00;3.0;3.0;
78678;PMS5003;67994;59.334;13.528;2024-02-21T05:38:00;3.0;3.0;
78678;PMS5003;67994;59.334;13.528;2024-02-21T05:39:01;3.0;3.0;
78678;PMS5003;67994;59.334;13.528;2024-02-21T05:40:00;3.0;3.0;
78678;PMS5003;67994;59.334;13.528;2024-02-21T05:41:00;3.0;3.0;
78678;PMS5003;67994;59.334;13.528;2024-02-21T05:42:00;3.0;3.0;
78678;PMS5003;67994;59.334;13.528;2024-02-21T05:43:01;3.0;3.0;
78678;PMS5003;67994;59.334;13.528;2024-02-21T05:44:01;2.4;2.4;
78678;PMS5003;67994;59.334;13.528;2024-02-21T05:45:00;2.4;2.4;
78678;PMS5003;67994;59.334;13.528;2024-02-21T05:46:00;2.4;2.4;
78678;PMS5003;67994;59.334;13.528;2024-02-21T05:47:00;2.4;2.4;
78678;PMS5003;67994;59.334;13.528;2024-02-21T05:48:00;2.4;2.4;
78678;PMS5003;67994;59.334;13.528;2024-02-21T05:49:01;1.2;1.2;
78678;PMS5003;67994;59.334;13.528;2024-02-21T05:50:00;1.2;1.2;
78678;PMS5003;67994;59.334;13.528;2024-02-21T05:51:01;1.2;1.2;
78678;PMS5003;67994;59.334;13.528;2024-02-21T05:52:01;1.2;1.2;
78678;PMS5003;67994;59.334;13.528;2024-02-21T05:53:00;1.2;1.2;
78678;PMS5003;67994;59.334;13.528;2024-02-21T05:54:00;1.9;1.8;
78678;PMS5003;67994;59.334;13.528;2024-02-21T05:55:00;1.9;1.8;
78678;PMS5003;67994;59.334;13.528;2024-02-21T05:56:00;1.9;1.8;
78678;PMS5003;67994;59.334;13.528;2024-02-21T05:57:00;1.9;1.8;
78678;PMS5003;67994;59.334;13.528;2024-02-21T05:58:00;1.9;1.8;
78678;PMS5003;67994;59.334;13.528;2024-02-21T05:59:00;2.8;0.7;
78678;PMS5003;67994;59.334;13.528;2024-02-21T06:00:02;2.8;0.7;
78678;PMS5003;67994;59.334;13.528;2024-02-21T06:01:00;2.8;0.7;
78678;PMS5003;67994;59.334;13.528;2024-02-21T06:02:00;2.8;0.7;
78678;PMS5003;67994;59.334;13.528;2024-02-21T06:03:00;2.8;0.7;
78678;PMS5003;67994;59.334;13.528;2024-02-21T06:04:01;3.7;1.2;
78678;PMS5003;67994;59.334;13.528;2024-02-21T06:05:01;3.7;1.2;
78678;PMS5003;67994;59.334;13.528;2024-02-21T06:06:00;3.7;1.2;
78678;PMS5003;67994;59.334;13.528;2024-02-21T06:07:00;3.7;1.2;
78678;PMS5003;67994;59.334;13.528;2024-02-21T06:08:00;3.7;1.2;
78678;PMS5003;67994;59.334;13.528;2024-02-21T06:09:00;0.7;0.7;
78678;PMS5003;67994;59.334;13.528;2024-02-21T06:10:01;0.7;0.7;
78678;PMS5003;67994;59.334;13.528;2024-02-21T06:11:00;0.7;0.7;
78678;PMS5003;67994;59.334;13.528;2024-02-21T06:12:00;0.7;0.7;
78678;PMS5003;67994;59.334;13.528;2024-02-21T06:13:00;0.7;0.7;
78678;PMS5003;67994;59.334;13.528;2024-02-21T06:14:00;9.0;6.7;
78678;PMS5003;67994;59.334;13.528;2024-02-21T06:15:00;9.0;6.7;